sensor_id;sensor_type;location;lat;lon;timestamp;pressure;altitude;pressure_sealevel;temperature;humidity
54900;BME280;40801;41.924;25.562;2023-11-19T00:01:52;99009.50;;;6.78;54.54
54900;BME280;40801;41.924;25.562;2023-11-19T00:04:18;99004.00;;;6.88;54.74
54900;BME280;40801;41.924;25.562;2023-11-19T00:06:43;99023.38;;;7.04;53.79
54900;BME280;40801;41.924;25.562;2023-11-19T00:09:09;99008.06;;;7.04;54.10
54900;BME280;40801;41.924;25.562;2023-11-19T00:11:34;99024.66;;;7.06;53.86
54900;BME280;40801;41.924;25.562;2023-11-19T00:14:00;99019.66;;;7.19;53.29
54900;BME280;40801;41.924;25.562;2023-11-19T00:16:25;99014.59;;;6.98;54.39
54900;BME280;40801;41.924;25.562;2023-11-19T00:18:50;99016.59;;;6.88;54.72
54900;BME280;40801;41.924;25.562;2023-11-19T00:21:16;99022.94;;;6.97;54.19
54900;BME280;40801;41.924;25.562;2023-11-19T00:23:41;99035.59;;;6.72;54.82
54900;BME280;40801;41.924;25.562;2023-11-19T00:26:07;99037.00;;;6.65;55.57
54900;BME280;40801;41.924;25.562;2023-11-19T00:28:33;99042.94;;;6.62;55.62
54900;BME280;40801;41.924;25.562;2023-11-19T00:30:59;99029.13;;;6.73;55.55
54900;BME280;40801;41.924;25.562;2023-11-19T00:33:24;99034.22;;;6.94;55.36
54900;BME280;40801;41.924;25.562;2023-11-19T00:35:50;99034.75;;;6.96;54.41
54900;BME280;40801;41.924;25.562;2023-11-19T00:38:15;99038.69;;;6.79;55.44
54900;BME280;40801;41.924;25.562;2023-11-19T00:40:41;99038.88;;;6.64;56.17
54900;BME280;40801;41.924;25.562;2023-11-19T00:43:06;99042.97;;;6.80;55.38
54900;BME280;40801;41.924;25.562;2023-11-19T00:45:32;99052.75;;;6.90;55.35
54900;BME280;40801;41.924;25.562;2023-11-19T00:47:58;99061.44;;;6.82;55.45
54900;BME280;40801;41.924;25.562;2023-11-19T00:50:25;99063.97;;;6.73;55.21
54900;BME280;40801;41.924;25.562;2023-11-19T00:52:50;99056.81;;;6.69;55.97
54900;BME280;40801;41.924;25.562;2023-11-19T00:55:16;99070.22;;;6.64;56.06
54900;BME280;40801;41.924;25.562;2023-11-19T00:57:42;99063.28;;;6.63;56.21
54900;BME280;40801;41.924;25.562;2023-11-19T01:00:09;99076.16;;;6.61;56.47
54900;BME280;40801;41.924;25.562;2023-11-19T01:02:44;99069.97;;;6.65;56.13
54900;BME280;40801;41.924;25.562;2023-11-19T01:05:10;99077.47;;;6.63;56.50
54900;BME280;40801;41.924;25.562;2023-11-19T01:07:39;99072.09;;;6.44;56.70
54900;BME280;40801;41.924;25.562;2023-11-19T01:10:05;99063.28;;;6.63;56.63
54900;BME280;40801;41.924;25.562;2023-11-19T01:12:32;99064.22;;;6.53;56.90
54900;BME280;40801;41.924;25.562;2023-11-19T01:14:58;99064.38;;;6.62;56.13
54900;BME280;40801;41.924;25.562;2023-11-19T01:17:23;99069.41;;;6.68;56.46
54900;BME280;40801;41.924;25.562;2023-11-19T01:19:48;99077.50;;;6.39;56.84
54900;BME280;40801;41.924;25.562;2023-11-19T01:22:15;99077.38;;;6.49;56.67
54900;BME280;40801;41.924;25.562;2023-11-19T01:24:40;99077.09;;;6.75;56.00
54900;BME280;40801;41.924;25.562;2023-11-19T01:27:06;99065.75;;;6.59;56.47
54900;BME280;40801;41.924;25.562;2023-11-19T01:29:31;99070.00;;;6.60;56.10
54900;BME280;40801;41.924;25.562;2023-11-19T01:31:57;99080.13;;;6.68;56.55
54900;BME280;40801;41.924;25.562;2023-11-19T01:34:22;99083.97;;;6.57;56.53
54900;BME280;40801;41.924;25.562;2023-11-19T01:36:48;99086.78;;;6.71;56.00
54900;BME280;40801;41.924;25.562;2023-11-19T01:39:14;99082.03;;;6.63;56.50
54900;BME280;40801;41.924;25.562;2023-11-19T01:41:41;99084.78;;;6.58;56.63
54900;BME280;40801;41.924;25.562;2023-11-19T01:44:07;99087.81;;;6.51;56.96
54900;BME280;40801;41.924;25.562;2023-11-19T01:46:32;99094.19;;;6.55;56.69
54900;BME280;40801;41.924;25.562;2023-11-19T01:48:59;99097.66;;;6.56;56.20
54900;BME280;40801;41.924;25.562;2023-11-19T01:51:25;99064.84;;;6.45;56.32
54900;BME280;40801;41.924;25.562;2023-11-19T01:53:50;99083.19;;;6.57;56.28
54900;BME280;40801;41.924;25.562;2023-11-19T01:56:16;99073.97;;;6.68;55.88
54900;BME280;40801;41.924;25.562;2023-11-19T01:58:43;99063.84;;;6.60;55.80
54900;BME280;40801;41.924;25.562;2023-11-19T02:01:10;99079.25;;;6.73;55.69
54900;BME280;40801;41.924;25.562;2023-11-19T02:03:36;99070.13;;;6.74;55.83
54900;BME280;40801;41.924;25.562;2023-11-19T02:06:03;99050.00;;;6.76;55.14
54900;BME280;40801;41.924;25.562;2023-11-19T02:08:29;99075.56;;;6.45;56.44
54900;BME280;40801;41.924;25.562;2023-11-19T02:10:55;99074.00;;;6.63;56.06
54900;BME280;40801;41.924;25.562;2023-11-19T02:13:23;99076.81;;;6.52;56.65
54900;BME280;40801;41.924;25.562;2023-11-19T02:15:50;99085.13;;;6.75;55.78
54900;BME280;40801;41.924;25.562;2023-11-19T02:18:26;99079.41;;;6.58;56.47
54900;BME280;40801;41.924;25.562;2023-11-19T02:20:58;99081.66;;;6.74;56.29
54900;BME280;40801;41.924;25.562;2023-11-19T02:23:27;99083.25;;;6.51;56.76
54900;BME280;40801;41.924;25.562;2023-11-19T02:25:59;99100.78;;;6.63;56.38
54900;BME280;40801;41.924;25.562;2023-11-19T02:28:25;99089.91;;;6.54;56.93
54900;BME280;40801;41.924;25.562;2023-11-19T02:30:51;99084.09;;;6.71;55.89
54900;BME280;40801;41.924;25.562;2023-11-19T02:33:16;99091.13;;;6.67;56.77
54900;BME280;40801;41.924;25.562;2023-11-19T02:35:42;99110.38;;;6.69;56.64
54900;BME280;40801;41.924;25.562;2023-11-19T02:38:07;99098.47;;;6.56;57.07
54900;BME280;40801;41.924;25.562;2023-11-19T02:40:33;99111.00;;;6.37;57.20
54900;BME280;40801;41.924;25.562;2023-11-19T02:42:59;99095.84;;;6.51;57.11
54900;BME280;40801;41.924;25.562;2023-11-19T02:45:25;99091.63;;;6.69;56.35
54900;BME280;40801;41.924;25.562;2023-11-19T02:47:51;99094.63;;;6.62;56.46
54900;BME280;40801;41.924;25.562;2023-11-19T02:50:18;99087.53;;;6.52;57.24
54900;BME280;40801;41.924;25.562;2023-11-19T02:52:54;99085.19;;;6.46;57.52
54900;BME280;40801;41.924;25.562;2023-11-19T02:55:21;99093.84;;;6.38;57.97
54900;BME280;40801;41.924;25.562;2023-11-19T02:57:48;99095.50;;;6.58;57.16
54900;BME280;40801;41.924;25.562;2023-11-19T03:00:15;99093.63;;;6.58;57.05
54900;BME280;40801;41.924;25.562;2023-11-19T03:02:41;99091.19;;;6.38;57.96
54900;BME280;40801;41.924;25.562;2023-11-19T03:05:14;99089.34;;;6.57;57.65
54900;BME280;40801;41.924;25.562;2023-11-19T03:07:41;99082.38;;;6.56;57.77
54900;BME280;40801;41.924;25.562;2023-11-19T03:10:08;99087.34;;;6.44;57.59
54900;BME280;40801;41.924;25.562;2023-11-19T03:12:34;99084.63;;;6.49;57.28
54900;BME280;40801;41.924;25.562;2023-11-19T03:15:00;99079.59;;;6.42;58.04
54900;BME280;40801;41.924;25.562;2023-11-19T03:17:26;99091.50;;;6.55;57.27
54900;BME280;40801;41.924;25.562;2023-11-19T03:19:51;99072.59;;;6.70;56.91
54900;BME280;40801;41.924;25.562;2023-11-19T03:22:17;99076.63;;;6.44;57.78
54900;BME280;40801;41.924;25.562;2023-11-19T03:24:42;99070.38;;;6.53;57.25
54900;BME280;40801;41.924;25.562;2023-11-19T03:27:08;99071.78;;;6.46;57.79
54900;BME280;40801;41.924;25.562;2023-11-19T03:29:33;99073.78;;;6.59;57.09
54900;BME280;40801;41.924;25.562;2023-11-19T03:31:58;99058.00;;;6.34;58.09
54900;BME280;40801;41.924;25.562;2023-11-19T03:34:24;99059.19;;;6.22;58.38
54900;BME280;40801;41.924;25.562;2023-11-19T03:36:49;99070.25;;;6.40;57.86
54900;BME280;40801;41.924;25.562;2023-11-19T03:39:15;99095.47;;;6.10;58.89
54900;BME280;40801;41.924;25.562;2023-11-19T03:41:40;99084.69;;;6.15;58.53
54900;BME280;40801;41.924;25.562;2023-11-19T03:44:05;99069.19;;;6.41;57.79
54900;BME280;40801;41.924;25.562;2023-11-19T03:46:31;99088.78;;;6.36;57.97
54900;BME280;40801;41.924;25.562;2023-11-19T03:48:57;99092.06;;;6.28;58.13
54900;BME280;40801;41.924;25.562;2023-11-19T03:51:22;99098.28;;;6.47;57.35
54900;BME280;40801;41.924;25.562;2023-11-19T03:53:48;99108.03;;;6.38;58.01
54900;BME280;40801;41.924;25.562;2023-11-19T03:56:13;99107.75;;;6.40;57.67
54900;BME280;40801;41.924;25.562;2023-11-19T03:58:39;99101.63;;;6.34;58.16
54900;BME280;40801;41.924;25.562;2023-11-19T04:01:05;99096.75;;;6.41;57.63
54900;BME280;40801;41.924;25.562;2023-11-19T04:03:31;99108.72;;;6.49;57.46
54900;BME280;40801;41.924;25.562;2023-11-19T04:05:56;99120.34;;;6.39;57.32
54900;BME280;40801;41.924;25.562;2023-11-19T04:08:22;99121.94;;;6.40;58.09
54900;BME280;40801;41.924;25.562;2023-11-19T04:10:47;99120.91;;;6.36;57.53
54900;BME280;40801;41.924;25.562;2023-11-19T04:13:13;99121.50;;;6.57;57.10
54900;BME280;40801;41.924;25.562;2023-11-19T04:15:38;99133.97;;;6.43;57.25
54900;BME280;40801;41.924;25.562;2023-11-19T04:18:04;99139.91;;;6.40;57.23
54900;BME280;40801;41.924;25.562;2023-11-19T04:20:29;99146.28;;;6.44;57.35
54900;BME280;40801;41.924;25.562;2023-11-19T04:22:57;99157.91;;;6.58;57.09
54900;BME280;40801;41.924;25.562;2023-11-19T04:25:22;99163.19;;;6.39;56.81
54900;BME280;40801;41.924;25.562;2023-11-19T04:27:49;99175.00;;;6.62;56.42
54900;BME280;40801;41.924;25.562;2023-11-19T04:30:15;99167.53;;;6.59;56.65
54900;BME280;40801;41.924;25.562;2023-11-19T04:32:40;99195.25;;;6.49;56.76
54900;BME280;40801;41.924;25.562;2023-11-19T04:35:06;99192.41;;;6.65;56.41
54900;BME280;40801;41.924;25.562;2023-11-19T04:37:32;99203.31;;;6.44;57.19
54900;BME280;40801;41.924;25.562;2023-11-19T04:39:57;99191.19;;;6.52;57.03
54900;BME280;40801;41.924;25.562;2023-11-19T04:42:23;99208.69;;;6.44;57.15
54900;BME280;40801;41.924;25.562;2023-11-19T04:44:49;99209.72;;;6.48;56.88
54900;BME280;40801;41.924;25.562;2023-11-19T04:47:15;99220.63;;;6.23;57.90
54900;BME280;40801;41.924;25.562;2023-11-19T04:49:40;99213.75;;;6.46;57.73
54900;BME280;40801;41.924;25.562;2023-11-19T04:52:08;99213.28;;;6.39;57.26
54900;BME280;40801;41.924;25.562;2023-11-19T04:54:33;99223.50;;;6.37;57.41
54900;BME280;40801;41.924;25.562;2023-11-19T04:56:59;99212.88;;;6.21;57.69
54900;BME280;40801;41.924;25.562;2023-11-19T04:59:24;99235.28;;;6.31;57.72
54900;BME280;40801;41.924;25.562;2023-11-19T05:01:50;99238.78;;;6.31;57.67
54900;BME280;40801;41.924;25.562;2023-11-19T05:04:16;99233.56;;;6.16;58.45
54900;BME280;40801;41.924;25.562;2023-11-19T05:06:41;99247.59;;;6.32;57.55
54900;BME280;40801;41.924;25.562;2023-11-19T05:09:07;99250.09;;;6.23;57.92
54900;BME280;40801;41.924;25.562;2023-11-19T05:11:36;99251.88;;;6.38;57.57
54900;BME280;40801;41.924;25.562;2023-11-19T05:14:05;99269.44;;;6.49;57.00
54900;BME280;40801;41.924;25.562;2023-11-19T05:16:31;99278.56;;;6.48;56.83
54900;BME280;40801;41.924;25.562;2023-11-19T05:18:56;99285.56;;;6.44;57.06
54900;BME280;40801;41.924;25.562;2023-11-19T05:21:22;99278.53;;;6.53;56.65
54900;BME280;40801;41.924;25.562;2023-11-19T05:23:48;99284.97;;;6.52;56.56
54900;BME280;40801;41.924;25.562;2023-11-19T05:26:18;99287.25;;;6.69;56.09
54900;BME280;40801;41.924;25.562;2023-11-19T05:28:45;99269.28;;;6.69;56.28
54900;BME280;40801;41.924;25.562;2023-11-19T05:31:10;99282.91;;;6.73;56.15
54900;BME280;40801;41.924;25.562;2023-11-19T05:33:35;99281.84;;;6.74;55.44
54900;BME280;40801;41.924;25.562;2023-11-19T05:36:01;99283.84;;;6.87;55.37
54900;BME280;40801;41.924;25.562;2023-11-19T05:38:29;99289.03;;;6.78;55.75
54900;BME280;40801;41.924;25.562;2023-11-19T05:40:54;99296.31;;;6.73;55.92
54900;BME280;40801;41.924;25.562;2023-11-19T05:43:20;99300.34;;;6.70;55.68
54900;BME280;40801;41.924;25.562;2023-11-19T05:45:46;99305.19;;;6.68;55.50
54900;BME280;40801;41.924;25.562;2023-11-19T05:48:11;99302.44;;;6.78;55.28
54900;BME280;40801;41.924;25.562;2023-11-19T05:50:37;99311.63;;;6.67;56.11
54900;BME280;40801;41.924;25.562;2023-11-19T05:53:02;99318.50;;;6.44;56.34
54900;BME280;40801;41.924;25.562;2023-11-19T05:55:33;99317.28;;;6.66;56.13
54900;BME280;40801;41.924;25.562;2023-11-19T05:57:59;99320.91;;;6.80;55.18
54900;BME280;40801;41.924;25.562;2023-11-19T06:00:25;99325.41;;;6.84;55.25
54900;BME280;40801;41.924;25.562;2023-11-19T06:02:52;99324.34;;;6.86;55.48
54900;BME280;40801;41.924;25.562;2023-11-19T06:05:18;99327.22;;;6.94;55.13
54900;BME280;40801;41.924;25.562;2023-11-19T06:07:43;99320.22;;;6.98;55.29
54900;BME280;40801;41.924;25.562;2023-11-19T06:10:09;99327.19;;;6.99;55.18
54900;BME280;40801;41.924;25.562;2023-11-19T06:12:36;99336.31;;;6.93;55.09
54900;BME280;40801;41.924;25.562;2023-11-19T06:15:05;99341.44;;;6.95;54.43
54900;BME280;40801;41.924;25.562;2023-11-19T06:17:31;99350.53;;;6.94;54.44
54900;BME280;40801;41.924;25.562;2023-11-19T06:19:56;99346.63;;;7.10;54.53
54900;BME280;40801;41.924;25.562;2023-11-19T06:22:22;99345.59;;;7.06;54.16
54900;BME280;40801;41.924;25.562;2023-11-19T06:24:47;99359.16;;;7.20;53.71
54900;BME280;40801;41.924;25.562;2023-11-19T06:27:13;99352.94;;;6.95;55.06
54900;BME280;40801;41.924;25.562;2023-11-19T06:29:38;99348.91;;;6.98;54.41
54900;BME280;40801;41.924;25.562;2023-11-19T06:32:06;99347.81;;;6.99;54.71
54900;BME280;40801;41.924;25.562;2023-11-19T06:34:31;99361.25;;;7.23;53.40
54900;BME280;40801;41.924;25.562;2023-11-19T06:36:58;99353.03;;;7.43;53.49
54900;BME280;40801;41.924;25.562;2023-11-19T06:39:23;99356.28;;;7.40;52.74
54900;BME280;40801;41.924;25.562;2023-11-19T06:41:49;99352.28;;;7.37;53.81
54900;BME280;40801;41.924;25.562;2023-11-19T06:44:14;99360.94;;;7.29;53.61
54900;BME280;40801;41.924;25.562;2023-11-19T06:46:40;99363.06;;;7.03;53.84
54900;BME280;40801;41.924;25.562;2023-11-19T06:49:05;99367.13;;;7.30;53.49
54900;BME280;40801;41.924;25.562;2023-11-19T06:51:33;99358.63;;;7.70;52.57
54900;BME280;40801;41.924;25.562;2023-11-19T06:53:59;99375.13;;;8.25;52.36
54900;BME280;40801;41.924;25.562;2023-11-19T06:56:25;99368.47;;;8.79;50.14
54900;BME280;40801;41.924;25.562;2023-11-19T06:58:51;99360.38;;;9.58;49.00
54900;BME280;40801;41.924;25.562;2023-11-19T07:01:17;99373.16;;;9.66;46.96
54900;BME280;40801;41.924;25.562;2023-11-19T07:03:47;99377.63;;;9.71;47.32
54900;BME280;40801;41.924;25.562;2023-11-19T07:06:12;99387.19;;;10.32;47.06
54900;BME280;40801;41.924;25.562;2023-11-19T07:08:40;99361.03;;;10.32;45.14
54900;BME280;40801;41.924;25.562;2023-11-19T07:11:06;99371.53;;;10.20;46.16
54900;BME280;40801;41.924;25.562;2023-11-19T07:13:32;99372.75;;;10.00;47.12
54900;BME280;40801;41.924;25.562;2023-11-19T07:15:57;99373.03;;;10.26;45.43
54900;BME280;40801;41.924;25.562;2023-11-19T07:18:23;99350.72;;;11.46;44.56
54900;BME280;40801;41.924;25.562;2023-11-19T07:20:49;99345.34;;;11.24;43.14
54900;BME280;40801;41.924;25.562;2023-11-19T07:23:14;99342.75;;;11.41;42.64
54900;BME280;40801;41.924;25.562;2023-11-19T07:25:43;99331.94;;;11.41;42.32
54900;BME280;40801;41.924;25.562;2023-11-19T07:28:12;99335.91;;;11.35;42.70
54900;BME280;40801;41.924;25.562;2023-11-19T07:30:38;99347.09;;;11.90;42.29
54900;BME280;40801;41.924;25.562;2023-11-19T07:33:03;99340.34;;;11.70;41.74
54900;BME280;40801;41.924;25.562;2023-11-19T07:35:32;99339.75;;;11.82;41.49
54900;BME280;40801;41.924;25.562;2023-11-19T07:37:57;99335.09;;;12.65;40.22
54900;BME280;40801;41.924;25.562;2023-11-19T07:40:24;99348.28;;;12.15;40.72
54900;BME280;40801;41.924;25.562;2023-11-19T07:42:49;99350.50;;;12.39;40.91
54900;BME280;40801;41.924;25.562;2023-11-19T07:45:16;99361.31;;;11.34;41.57
54900;BME280;40801;41.924;25.562;2023-11-19T07:47:42;99354.72;;;11.88;41.12
54900;BME280;40801;41.924;25.562;2023-11-19T07:50:10;99346.44;;;11.85;40.83
54900;BME280;40801;41.924;25.562;2023-11-19T07:52:35;99353.56;;;12.46;39.99
54900;BME280;40801;41.924;25.562;2023-11-19T07:55:01;99363.72;;;12.92;38.46
54900;BME280;40801;41.924;25.562;2023-11-19T07:57:28;99357.63;;;12.00;39.73
54900;BME280;40801;41.924;25.562;2023-11-19T07:59:56;99377.72;;;12.34;40.64
54900;BME280;40801;41.924;25.562;2023-11-19T08:02:21;99373.28;;;12.90;39.04
54900;BME280;40801;41.924;25.562;2023-11-19T08:04:49;99389.31;;;12.34;39.67
54900;BME280;40801;41.924;25.562;2023-11-19T08:07:17;99382.66;;;13.10;38.55
54900;BME280;40801;41.924;25.562;2023-11-19T08:09:43;99394.44;;;12.96;38.72
54900;BME280;40801;41.924;25.562;2023-11-19T08:12:08;99398.19;;;13.94;36.59
54900;BME280;40801;41.924;25.562;2023-11-19T08:14:35;99395.94;;;14.25;36.49
54900;BME280;40801;41.924;25.562;2023-11-19T08:17:00;99406.72;;;13.20;36.82
54900;BME280;40801;41.924;25.562;2023-11-19T08:19:26;99409.97;;;14.57;35.72
54900;BME280;40801;41.924;25.562;2023-11-19T08:21:51;99409.97;;;14.57;35.91
54900;BME280;40801;41.924;25.562;2023-11-19T08:24:16;99419.16;;;14.44;36.02
54900;BME280;40801;41.924;25.562;2023-11-19T08:26:42;99420.16;;;14.60;36.26
54900;BME280;40801;41.924;25.562;2023-11-19T08:29:08;99431.50;;;15.04;35.61
54900;BME280;40801;41.924;25.562;2023-11-19T08:31:34;99428.81;;;16.19;32.96
54900;BME280;40801;41.924;25.562;2023-11-19T08:34:00;99442.38;;;15.82;33.44
54900;BME280;40801;41.924;25.562;2023-11-19T08:36:25;99449.44;;;15.50;34.04
54900;BME280;40801;41.924;25.562;2023-11-19T08:38:53;99423.50;;;15.53;33.51
54900;BME280;40801;41.924;25.562;2023-11-19T08:41:18;99418.13;;;15.65;33.42
54900;BME280;40801;41.924;25.562;2023-11-19T08:43:45;99440.69;;;15.44;33.33
54900;BME280;40801;41.924;25.562;2023-11-19T08:46:11;99431.91;;;15.27;33.27
54900;BME280;40801;41.924;25.562;2023-11-19T08:48:36;99420.06;;;14.77;34.37
54900;BME280;40801;41.924;25.562;2023-11-19T08:51:02;99435.63;;;15.55;32.56
54900;BME280;40801;41.924;25.562;2023-11-19T08:53:28;99430.84;;;16.09;32.02
54900;BME280;40801;41.924;25.562;2023-11-19T08:55:53;99438.66;;;15.74;32.50
54900;BME280;40801;41.924;25.562;2023-11-19T08:58:19;99435.72;;;16.16;31.78
54900;BME280;40801;41.924;25.562;2023-11-19T09:00:44;99430.47;;;16.72;31.60
54900;BME280;40801;41.924;25.562;2023-11-19T09:03:09;99456.41;;;17.06;31.48
54900;BME280;40801;41.924;25.562;2023-11-19T09:05:35;99444.69;;;16.41;30.57
54900;BME280;40801;41.924;25.562;2023-11-19T09:08:00;99444.94;;;16.24;31.71
54900;BME280;40801;41.924;25.562;2023-11-19T09:10:26;99440.38;;;17.04;31.14
54900;BME280;40801;41.924;25.562;2023-11-19T09:12:52;99450.25;;;16.20;31.73
54900;BME280;40801;41.924;25.562;2023-11-19T09:15:17;99454.56;;;15.97;31.89
54900;BME280;40801;41.924;25.562;2023-11-19T09:17:43;99443.47;;;17.75;29.97
54900;BME280;40801;41.924;25.562;2023-11-19T09:20:09;99439.78;;;16.71;30.17
54900;BME280;40801;41.924;25.562;2023-11-19T09:22:37;99440.34;;;16.77;30.56
54900;BME280;40801;41.924;25.562;2023-11-19T09:25:03;99432.16;;;17.45;30.35
54900;BME280;40801;41.924;25.562;2023-11-19T09:27:30;99415.22;;;18.14;29.48
54900;BME280;40801;41.924;25.562;2023-11-19T09:29:55;99415.72;;;18.36;28.78
54900;BME280;40801;41.924;25.562;2023-11-19T09:32:23;99414.00;;;17.80;29.35
54900;BME280;40801;41.924;25.562;2023-11-19T09:34:49;99426.56;;;15.96;30.31
54900;BME280;40801;41.924;25.562;2023-11-19T09:37:14;99396.97;;;17.55;29.33
54900;BME280;40801;41.924;25.562;2023-11-19T09:39:39;99414.31;;;16.91;29.84
54900;BME280;40801;41.924;25.562;2023-11-19T09:42:09;99402.22;;;17.76;29.28
54900;BME280;40801;41.924;25.562;2023-11-19T09:44:37;99433.66;;;17.14;29.33
54900;BME280;40801;41.924;25.562;2023-11-19T09:47:04;99411.75;;;17.39;29.07
54900;BME280;40801;41.924;25.562;2023-11-19T09:49:30;99413.09;;;17.92;29.36
54900;BME280;40801;41.924;25.562;2023-11-19T09:51:55;99414.34;;;17.79;29.24
54900;BME280;40801;41.924;25.562;2023-11-19T09:54:21;99403.00;;;17.77;29.69
54900;BME280;40801;41.924;25.562;2023-11-19T09:56:47;99420.34;;;18.00;28.63
54900;BME280;40801;41.924;25.562;2023-11-19T09:59:14;99415.59;;;17.81;28.30
54900;BME280;40801;41.924;25.562;2023-11-19T10:01:39;99424.88;;;17.64;29.36
54900;BME280;40801;41.924;25.562;2023-11-19T10:04:06;99419.94;;;16.58;29.87
54900;BME280;40801;41.924;25.562;2023-11-19T10:06:32;99436.28;;;17.54;28.89
54900;BME280;40801;41.924;25.562;2023-11-19T10:08:57;99437.50;;;17.85;28.65
54900;BME280;40801;41.924;25.562;2023-11-19T10:11:26;99415.22;;;18.14;28.40
54900;BME280;40801;41.924;25.562;2023-11-19T10:13:53;99421.22;;;18.04;28.23
54900;BME280;40801;41.924;25.562;2023-11-19T10:16:19;99426.09;;;19.39;27.43
54900;BME280;40801;41.924;25.562;2023-11-19T10:18:46;99421.91;;;18.68;26.83
54900;BME280;40801;41.924;25.562;2023-11-19T10:21:14;99435.19;;;18.34;27.50
54900;BME280;40801;41.924;25.562;2023-11-19T10:23:54;99426.13;;;18.14;27.09
54900;BME280;40801;41.924;25.562;2023-11-19T10:26:21;99441.09;;;17.89;27.68
54900;BME280;40801;41.924;25.562;2023-11-19T10:28:47;99434.22;;;18.11;28.21
54900;BME280;40801;41.924;25.562;2023-11-19T10:31:17;99441.84;;;18.52;27.28
54900;BME280;40801;41.924;25.562;2023-11-19T10:33:43;99434.66;;;18.99;26.96
54900;BME280;40801;41.924;25.562;2023-11-19T10:36:11;99442.69;;;19.30;26.40
54900;BME280;40801;41.924;25.562;2023-11-19T10:38:38;99447.03;;;18.42;27.09
54900;BME280;40801;41.924;25.562;2023-11-19T10:41:04;99446.06;;;18.66;26.96
54900;BME280;40801;41.924;25.562;2023-11-19T10:43:30;99447.81;;;18.23;27.34
54900;BME280;40801;41.924;25.562;2023-11-19T10:46:09;99456.78;;;18.23;27.11
54900;BME280;40801;41.924;25.562;2023-11-19T10:48:35;99440.31;;;17.88;27.68
54900;BME280;40801;41.924;25.562;2023-11-19T10:51:04;99439.97;;;18.21;27.43
54900;BME280;40801;41.924;25.562;2023-11-19T10:53:34;99437.91;;;18.85;26.59
54900;BME280;40801;41.924;25.562;2023-11-19T10:56:02;99431.50;;;18.11;27.52
54900;BME280;40801;41.924;25.562;2023-11-19T10:58:32;99430.91;;;19.07;25.98
54900;BME280;40801;41.924;25.562;2023-11-19T11:01:02;99434.28;;;19.00;26.83
54900;BME280;40801;41.924;25.562;2023-11-19T11:03:36;99413.72;;;19.91;25.67
54900;BME280;40801;41.924;25.562;2023-11-19T11:06:05;99408.34;;;20.47;25.54
54900;BME280;40801;41.924;25.562;2023-11-19T11:08:31;99410.22;;;20.69;24.86
54900;BME280;40801;41.924;25.562;2023-11-19T11:10:57;99402.88;;;20.77;24.22
54900;BME280;40801;41.924;25.562;2023-11-19T11:13:24;99418.03;;;20.67;24.77
54900;BME280;40801;41.924;25.562;2023-11-19T11:15:51;99420.81;;;20.18;25.21
54900;BME280;40801;41.924;25.562;2023-11-19T11:18:17;99427.84;;;19.08;25.88
54900;BME280;40801;41.924;25.562;2023-11-19T11:20:47;99416.63;;;19.36;26.04
54900;BME280;40801;41.924;25.562;2023-11-19T11:23:36;99389.75;;;20.60;24.43
54900;BME280;40801;41.924;25.562;2023-11-19T11:26:34;99402.81;;;20.70;24.36
54900;BME280;40801;41.924;25.562;2023-11-19T11:39:51;99403.56;;;19.26;25.82
54900;BME280;40801;41.924;25.562;2023-11-19T11:50:18;99395.50;;;20.25;24.21
54900;BME280;40801;41.924;25.562;2023-11-19T11:58:17;99403.59;;;19.49;24.86
54900;BME280;40801;41.924;25.562;2023-11-19T12:00:43;99409.69;;;19.19;25.27
54900;BME280;40801;41.924;25.562;2023-11-19T12:03:09;99390.94;;;19.60;25.08
54900;BME280;40801;41.924;25.562;2023-11-19T12:05:44;99390.56;;;19.62;24.50
54900;BME280;40801;41.924;25.562;2023-11-19T12:08:11;99380.94;;;19.48;24.95
54900;BME280;40801;41.924;25.562;2023-11-19T12:10:44;99383.09;;;18.97;25.33
54900;BME280;40801;41.924;25.562;2023-11-19T12:13:10;99358.69;;;19.50;25.23
54900;BME280;40801;41.924;25.562;2023-11-19T12:18:31;99347.75;;;19.08;25.52
54900;BME280;40801;41.924;25.562;2023-11-19T12:20:58;99353.94;;;19.66;25.15
54900;BME280;40801;41.924;25.562;2023-11-19T12:23:30;99339.81;;;20.17;24.68
54900;BME280;40801;41.924;25.562;2023-11-19T12:25:56;99340.06;;;19.36;24.86
54900;BME280;40801;41.924;25.562;2023-11-19T12:28:21;99350.22;;;19.36;25.24
54900;BME280;40801;41.924;25.562;2023-11-19T12:30:49;99341.00;;;19.02;26.15
54900;BME280;40801;41.924;25.562;2023-11-19T12:33:16;99343.00;;;19.47;25.54
54900;BME280;40801;41.924;25.562;2023-11-19T12:35:44;99335.06;;;19.61;25.13
54900;BME280;40801;41.924;25.562;2023-11-19T12:38:23;99336.13;;;17.83;26.42
54900;BME280;40801;41.924;25.562;2023-11-19T12:43:30;99332.63;;;19.56;25.48
54900;BME280;40801;41.924;25.562;2023-11-19T12:45:56;99348.91;;;19.49;24.89
54900;BME280;40801;41.924;25.562;2023-11-19T12:48:21;99333.81;;;19.13;25.76
54900;BME280;40801;41.924;25.562;2023-11-19T12:50:56;99330.97;;;19.29;25.46
54900;BME280;40801;41.924;25.562;2023-11-19T12:53:23;99333.41;;;20.06;24.73
54900;BME280;40801;41.924;25.562;2023-11-19T12:55:50;99335.09;;;19.65;24.82
54900;BME280;40801;41.924;25.562;2023-11-19T12:58:35;99343.06;;;19.50;24.39
54900;BME280;40801;41.924;25.562;2023-11-19T13:01:06;99338.28;;;20.20;24.40
54900;BME280;40801;41.924;25.562;2023-11-19T13:03:34;99335.25;;;19.98;24.67
54900;BME280;40801;41.924;25.562;2023-11-19T13:06:03;99338.25;;;19.21;25.28
54900;BME280;40801;41.924;25.562;2023-11-19T13:08:39;99344.16;;;18.46;25.71
54900;BME280;40801;41.924;25.562;2023-11-19T13:11:06;99330.00;;;19.40;25.15
54900;BME280;40801;41.924;25.562;2023-11-19T13:13:52;99316.59;;;18.70;26.02
54900;BME280;40801;41.924;25.562;2023-11-19T13:16:18;99311.66;;;19.64;25.05
54900;BME280;40801;41.924;25.562;2023-11-19T13:18:44;99328.28;;;19.32;25.44
54900;BME280;40801;41.924;25.562;2023-11-19T13:21:10;99324.91;;;18.97;25.52
54900;BME280;40801;41.924;25.562;2023-11-19T13:23:35;99341.22;;;17.84;26.21